Time;durP1;ratioP1;P1;durP2;ratioP2;P2;SDS_P1;SDS_P2;PMS_P1;PMS_P2;Temp;Humidity;BMP_temperature;BMP_pressure;BME280_temperature;BME280_humidity;BME280_pressure;Samples;Min_cycle;Max_cycle;Signal;HPM_P1;HPM_P2
2022/05/13 00:01:20;;;;;;;7.78;2.17;;;11.90;87.90;;;;;;5007155;28;20038;-58
2022/05/13 00:03:46;;;;;;;9.60;1.38;;;11.90;88.40;;;;;;5026331;28;20021;-58
2022/05/13 00:06:12;;;;;;;6.70;0.93;;;11.80;88.80;;;;;;5018958;28;20536;-59
2022/05/13 00:08:38;;;;;;;6.63;2.10;;;11.70;89.30;;;;;;5016110;28;20061;-59
2022/05/13 00:11:06;;;;;;;9.30;1.77;;;11.70;89.50;;;;;;5019737;28;20060;-59
2022/05/13 00:13:33;;;;;;;9.50;1.33;;;11.70;89.60;;;;;;5019834;28;20029;-59
2022/05/13 00:15:59;;;;;;;11.32;1.25;;;11.60;89.90;;;;;;5020097;28;20034;-58
2022/05/13 00:18:25;;;;;;;5.03;1.25;;;11.70;90.00;;;;;;5010307;28;20053;-59
2022/05/13 00:20:51;;;;;;;6.55;1.77;;;11.60;90.00;;;;;;5026343;28;20030;-58
2022/05/13 00:23:17;;;;;;;10.02;1.55;;;11.60;90.00;;;;;;5020371;28;20029;-59
2022/05/13 00:25:43;;;;;;;10.35;1.88;;;11.60;90.20;;;;;;5018137;28;20544;-63
2022/05/13 00:28:10;;;;;;;9.13;1.98;;;11.50;90.20;;;;;;5015321;28;20022;-58
2022/05/13 00:30:43;;;;;;;11.18;1.13;;;11.50;90.20;;;;;;5011229;28;20068;-60
2022/05/13 00:33:12;;;;;;;6.97;0.93;;;11.50;90.20;;;;;;5020391;28;20026;-59
2022/05/13 00:35:39;;;;;;;6.93;1.13;;;11.50;90.30;;;;;;5023736;28;20030;-58
2022/05/13 00:38:06;;;;;;;6.07;1.25;;;11.40;90.10;;;;;;5012083;28;20033;-57
2022/05/13 00:40:32;;;;;;;4.80;1.20;;;11.40;90.40;;;;;;5023180;28;20114;-58
2022/05/13 00:43:00;;;;;;;10.50;1.23;;;11.30;90.50;;;;;;5018084;28;20145;-60
2022/05/13 00:45:26;;;;;;;8.95;1.27;;;11.30;90.60;;;;;;5018560;28;20033;-59
2022/05/13 00:47:52;;;;;;;11.65;1.40;;;11.20;90.70;;;;;;5025938;28;20495;-58
2022/05/13 00:50:18;;;;;;;6.78;1.60;;;11.20;90.80;;;;;;5005439;28;20076;-58
2022/05/13 00:52:48;;;;;;;9.88;2.08;;;11.20;90.90;;;;;;5017209;28;20029;-59
2022/05/13 00:55:21;;;;;;;10.18;1.27;;;11.10;91.00;;;;;;5020111;28;20034;-60
2022/05/13 00:57:49;;;;;;;7.32;0.82;;;11.10;91.10;;;;;;5013260;28;20046;-59
2022/05/13 01:00:15;;;;;;;6.97;1.48;;;11.10;91.10;;;;;;5006087;28;20034;-58
2022/05/13 01:02:43;;;;;;;8.82;1.85;;;11.10;90.90;;;;;;5011346;28;20029;-58
2022/05/13 01:05:13;;;;;;;4.00;1.10;;;11.10;90.80;;;;;;5020494;28;20029;-58
2022/05/13 01:07:40;;;;;;;5.30;0.93;;;11.00;90.80;;;;;;5015435;28;20121;-58
2022/05/13 01:10:10;;;;;;;4.57;1.27;;;10.90;90.90;;;;;;5020070;28;20176;-59
2022/05/13 01:12:40;;;;;;;10.27;1.27;;;10.90;91.00;;;;;;5019412;28;20951;-58
2022/05/13 01:15:16;;;;;;;10.32;1.48;;;10.90;91.20;;;;;;5017630;28;20034;-59
2022/05/13 01:20:29;;;;;;;8.30;1.70;;;10.90;91.10;;;;;;5002604;28;20084;-60
2022/05/13 01:23:05;;;;;;;5.38;1.25;;;10.80;91.10;;;;;;5012885;28;20033;-58
2022/05/13 01:25:34;;;;;;;5.60;0.90;;;10.80;91.10;;;;;;5014332;28;20120;-59
2022/05/13 01:28:10;;;;;;;7.30;1.55;;;10.90;90.50;;;;;;5017997;28;20057;-59
2022/05/13 01:30:40;;;;;;;4.28;0.90;;;10.90;90.40;;;;;;5004946;28;20133;-59
2022/05/13 01:33:06;;;;;;;5.88;1.65;;;10.80;90.50;;;;;;5003558;28;20029;-59
2022/05/13 01:35:32;;;;;;;5.63;1.70;;;10.90;90.20;;;;;;5015017;28;20032;-58
2022/05/13 01:37:57;;;;;;;3.33;1.13;;;10.90;90.20;;;;;;5014053;28;20549;-58
2022/05/13 01:40:23;;;;;;;5.03;1.15;;;11.00;90.00;;;;;;5016186;28;20042;-58
2022/05/13 01:42:50;;;;;;;6.88;1.08;;;11.00;89.80;;;;;;5016915;28;20025;-59
2022/05/13 01:45:16;;;;;;;5.82;2.08;;;10.90;89.90;;;;;;5017517;28;20033;-59
2022/05/13 01:47:41;;;;;;;6.80;1.15;;;11.00;89.70;;;;;;5011293;28;20079;-58
2022/05/13 01:50:08;;;;;;;6.88;1.05;;;10.90;89.90;;;;;;5007350;28;20030;-59
2022/05/13 01:52:34;;;;;;;5.70;1.02;;;10.90;90.10;;;;;;5018262;28;20034;-58
2022/05/13 01:54:59;;;;;;;3.95;0.80;;;10.80;90.40;;;;;;5018577;28;20041;-58
2022/05/13 01:57:25;;;;;;;7.05;0.88;;;10.80;90.50;;;;;;5003874;28;20504;-59
2022/05/13 01:59:51;;;;;;;4.90;1.25;;;10.80;90.80;;;;;;5005094;28;20026;-59
2022/05/13 02:02:16;;;;;;;8.40;1.20;;;10.80;90.90;;;;;;5010486;28;20124;-59
2022/05/13 02:04:42;;;;;;;10.20;1.10;;;10.70;91.10;;;;;;5014997;28;20036;-59
2022/05/13 02:07:08;;;;;;;7.38;1.20;;;10.70;91.30;;;;;;5019986;28;20088;-59
2022/05/13 02:09:34;;;;;;;8.13;1.25;;;10.80;91.20;;;;;;5015146;28;20030;-58
2022/05/13 02:11:59;;;;;;;8.32;0.90;;;10.70;91.20;;;;;;5008516;28;20040;-59
2022/05/13 02:14:25;;;;;;;7.85;1.15;;;10.70;91.10;;;;;;5015596;28;20605;-59
2022/05/13 02:16:50;;;;;;;8.45;1.25;;;10.70;90.90;;;;;;5022658;28;20042;-59
2022/05/13 02:19:17;;;;;;;9.90;1.23;;;10.70;90.50;;;;;;5017986;28;20030;-59
2022/05/13 02:21:43;;;;;;;6.68;1.00;;;10.70;90.20;;;;;;5015757;28;20038;-58
2022/05/13 02:24:09;;;;;;;6.13;0.88;;;10.70;89.80;;;;;;5013995;28;20066;-59
2022/05/13 02:26:35;;;;;;;5.55;1.05;;;10.80;88.50;;;;;;5023422;28;20034;-59
2022/05/13 02:29:02;;;;;;;4.50;0.80;;;10.80;88.00;;;;;;5025644;28;20030;-59
2022/05/13 02:31:29;;;;;;;5.30;0.70;;;10.80;87.20;;;;;;5010987;28;20083;-59
2022/05/13 02:33:55;;;;;;;2.65;1.27;;;10.90;86.40;;;;;;5019086;28;20546;-59
2022/05/13 02:36:21;;;;;;;5.40;0.75;;;10.90;85.70;;;;;;5020970;28;20046;-59
2022/05/13 02:38:46;;;;;;;2.20;0.50;;;10.90;85.80;;;;;;5014834;28;20373;-59
2022/05/13 02:41:12;;;;;;;2.88;0.88;;;10.80;85.60;;;;;;5014315;28;20060;-59
2022/05/13 02:43:48;;;;;;;2.60;1.10;;;10.80;85.40;;;;;;5025983;28;20034;-59
2022/05/13 02:46:23;;;;;;;8.27;1.85;;;10.80;85.50;;;;;;5006646;28;20088;-59
2022/05/13 02:48:49;;;;;;;5.45;0.73;;;10.80;84.10;;;;;;5005955;28;20556;-59
2022/05/13 02:51:15;;;;;;;2.95;1.33;;;10.80;84.40;;;;;;5011888;28;20030;-60
2022/05/13 02:53:41;;;;;;;2.08;0.65;;;10.90;83.80;;;;;;5005364;28;20038;-59
2022/05/13 02:56:07;;;;;;;0.95;0.40;;;10.90;83.60;;;;;;5013579;28;20040;-59
2022/05/13 02:58:34;;;;;;;7.50;0.90;;;10.90;83.50;;;;;;5024298;28;20029;-59
2022/05/13 03:01:02;;;;;;;2.85;0.60;;;10.80;83.40;;;;;;5020611;28;20113;-59
2022/05/13 03:03:28;;;;;;;2.85;0.50;;;10.90;83.50;;;;;;5019937;28;20042;-59
2022/05/13 03:05:53;;;;;;;5.38;0.80;;;10.80;83.90;;;;;;5015703;28;20121;-58
2022/05/13 03:08:19;;;;;;;6.57;0.80;;;10.80;84.00;;;;;;5020749;28;20120;-58
2022/05/13 03:10:46;;;;;;;2.45;0.70;;;10.80;84.10;;;;;;5017349;28;20026;-58
2022/05/13 03:13:11;;;;;;;5.10;0.80;;;10.80;83.60;;;;;;5014010;28;20026;-57
2022/05/13 03:15:37;;;;;;;4.45;0.60;;;10.80;84.00;;;;;;5012927;28;20093;-57
2022/05/13 03:18:03;;;;;;;4.35;0.70;;;10.80;84.10;;;;;;5017451;28;20449;-58
2022/05/13 03:20:29;;;;;;;8.10;1.02;;;10.70;84.50;;;;;;4996064;28;20022;-58
2022/05/13 03:22:55;;;;;;;6.82;0.95;;;10.60;84.60;;;;;;5011872;28;20026;-58
2022/05/13 03:25:22;;;;;;;7.18;0.70;;;10.80;84.60;;;;;;5018860;28;20087;-58
2022/05/13 03:27:48;;;;;;;2.70;0.88;;;10.80;84.30;;;;;;5021766;28;20178;-58
2022/05/13 03:30:16;;;;;;;4.20;0.98;;;10.80;84.50;;;;;;5000825;28;20053;-58
2022/05/13 03:32:42;;;;;;;5.00;1.02;;;10.70;85.00;;;;;;5005765;28;20094;-60
2022/05/13 03:35:10;;;;;;;5.97;0.70;;;10.70;85.10;;;;;;5017305;28;20042;-57
2022/05/13 03:37:35;;;;;;;4.78;0.60;;;10.70;85.10;;;;;;5009601;28;20140;-58
2022/05/13 03:40:01;;;;;;;4.28;0.70;;;10.70;85.30;;;;;;5008445;28;20057;-60
2022/05/13 03:42:27;;;;;;;3.80;0.82;;;10.70;85.60;;;;;;5023681;22;20056;-54
2022/05/13 03:44:53;;;;;;;2.47;0.63;;;10.70;85.20;;;;;;5011561;28;20042;-54
2022/05/13 03:47:18;;;;;;;5.53;1.10;;;10.80;85.30;;;;;;5002295;28;20035;-55
2022/05/13 03:49:44;;;;;;;3.42;0.80;;;10.80;85.10;;;;;;5005711;28;20080;-55
2022/05/13 03:52:11;;;;;;;9.52;0.85;;;10.80;85.00;;;;;;5006943;28;20401;-55
2022/05/13 03:54:38;;;;;;;2.63;0.55;;;10.80;85.00;;;;;;5015976;28;20113;-55
2022/05/13 03:57:06;;;;;;;6.40;1.63;;;10.90;84.80;;;;;;5010538;28;20029;-56
2022/05/13 03:59:32;;;;;;;4.22;1.10;;;10.80;84.80;;;;;;5003425;28;20029;-55
2022/05/13 04:01:59;;;;;;;4.20;2.05;;;10.90;85.00;;;;;;5006484;28;20030;-54
2022/05/13 04:04:27;;;;;;;5.10;0.60;;;10.80;85.30;;;;;;5005955;28;20025;-55
2022/05/13 04:09:37;;;;;;;13.13;1.15;;;10.80;85.30;;;;;;5008354;28;20036;-56
2022/05/13 04:17:31;;;;;;;3.05;1.02;;;10.80;85.60;;;;;;5000272;28;20053;-53
2022/05/13 04:19:57;;;;;;;4.97;0.98;;;10.80;85.70;;;;;;5001326;28;20030;-55
2022/05/13 04:22:25;;;;;;;5.75;1.48;;;10.70;85.90;;;;;;5009504;28;20153;-54
2022/05/13 04:24:52;;;;;;;5.25;1.67;;;10.70;85.90;;;;;;5002850;28;20026;-54
2022/05/13 04:27:18;;;;;;;3.50;0.80;;;10.80;85.90;;;;;;5004560;28;20478;-51
2022/05/13 04:29:44;;;;;;;4.10;0.70;;;10.70;86.30;;;;;;5011025;28;20030;-54
2022/05/13 04:32:10;;;;;;;9.73;1.23;;;10.70;86.50;;;;;;5004706;28;20030;-54
2022/05/13 04:34:36;;;;;;;3.17;0.75;;;10.70;86.30;;;;;;5004582;28;20029;-54
2022/05/13 04:37:02;;;;;;;3.33;1.35;;;10.70;86.50;;;;;;5007576;28;20072;-54
2022/05/13 04:39:29;;;;;;;3.83;1.60;;;10.60;86.90;;;;;;4998688;28;20184;-54
2022/05/13 04:44:39;;;;;;;7.25;1.20;;;10.70;86.60;;;;;;5003932;28;20052;-54
2022/05/13 04:48:15;;;;;;;3.30;0.88;;;10.70;86.70;;;;;;5011149;28;20469;-56
2022/05/13 04:49:55;;;;;;;7.22;1.27;;;10.80;86.50;;;;;;5002484;28;20112;-55
2022/05/13 04:52:20;;;;;;;3.63;1.20;;;10.70;86.40;;;;;;5002157;28;20125;-55
2022/05/13 04:54:46;;;;;;;3.90;1.27;;;10.80;86.30;;;;;;5010035;28;20460;-56
2022/05/13 04:57:12;;;;;;;13.82;2.00;;;10.80;86.30;;;;;;4994630;28;20041;-55
2022/05/13 04:59:38;;;;;;;6.80;1.02;;;10.80;86.20;;;;;;5005845;28;20034;-57
2022/05/13 05:02:04;;;;;;;7.53;1.73;;;10.90;86.00;;;;;;5000426;28;20040;-56
2022/05/13 05:04:29;;;;;;;5.28;0.98;;;10.90;85.70;;;;;;5001904;28;20053;-55
2022/05/13 05:06:55;;;;;;;2.90;1.10;;;10.90;85.50;;;;;;5006569;28;20064;-53
2022/05/13 05:09:21;;;;;;;9.40;1.63;;;11.00;85.40;;;;;;5007535;28;20026;-55
2022/05/13 05:11:47;;;;;;;4.75;1.70;;;11.00;84.90;;;;;;5002319;28;20464;-55
2022/05/13 05:14:12;;;;;;;5.57;1.30;;;11.10;84.90;;;;;;5008507;28;20022;-54
2022/05/13 05:16:38;;;;;;;5.32;1.70;;;11.10;84.70;;;;;;5003708;28;20137;-53
2022/05/13 05:19:05;;;;;;;3.40;1.10;;;11.20;84.60;;;;;;4999957;28;20027;-55
2022/05/13 05:21:31;;;;;;;4.20;1.38;;;11.20;84.40;;;;;;5006637;28;20037;-56
2022/05/13 05:23:57;;;;;;;4.10;1.00;;;11.20;84.20;;;;;;5009934;28;20026;-56
2022/05/13 05:26:23;;;;;;;5.10;1.10;;;11.20;84.40;;;;;;5008334;28;20053;-56
2022/05/13 05:28:51;;;;;;;7.65;1.25;;;11.30;84.60;;;;;;5006145;28;20474;-55
2022/05/13 05:31:16;;;;;;;6.55;1.00;;;11.40;84.00;;;;;;5006074;28;20030;-54
2022/05/13 05:33:42;;;;;;;5.80;1.40;;;11.50;83.50;;;;;;4998639;28;20033;-55
2022/05/13 05:36:08;;;;;;;11.23;3.47;;;11.50;83.20;;;;;;4998613;28;20061;-56
2022/05/13 05:38:37;;;;;;;7.65;0.90;;;11.60;83.10;;;;;;5003186;28;20116;-54
2022/05/13 05:41:03;;;;;;;7.03;1.23;;;11.60;83.10;;;;;;5010027;28;20030;-55
2022/05/13 05:43:29;;;;;;;4.80;1.52;;;11.70;82.70;;;;;;5008221;28;20366;-54
2022/05/13 05:45:57;;;;;;;4.95;1.30;;;11.80;82.60;;;;;;5002341;28;20037;-55
2022/05/13 05:48:23;;;;;;;5.95;0.80;;;11.90;82.40;;;;;;5005209;28;20033;-54
2022/05/13 05:50:56;;;;;;;8.10;0.90;;;11.90;81.60;;;;;;5003632;28;20172;-56
2022/05/13 05:58:53;;;;;;;7.78;0.85;;;12.10;81.10;;;;;;4999278;28;20045;-55
2022/05/13 06:01:19;;;;;;;5.07;1.05;;;12.20;80.60;;;;;;5006660;28;20038;-56
2022/05/13 06:03:45;;;;;;;8.05;1.40;;;12.20;80.10;;;;;;5008698;28;20171;-55
2022/05/13 06:06:12;;;;;;;6.22;1.33;;;12.20;80.40;;;;;;5006414;28;20030;-54
2022/05/13 06:08:39;;;;;;;4.35;1.35;;;12.40;80.60;;;;;;5004026;28;20041;-54
2022/05/13 06:11:05;;;;;;;5.93;1.20;;;12.50;80.10;;;;;;5004641;28;20390;-57
2022/05/13 06:13:31;;;;;;;4.57;0.90;;;12.50;79.40;;;;;;5012740;28;20034;-55
2022/05/13 06:15:57;;;;;;;7.78;2.72;;;12.50;79.80;;;;;;5012429;28;20197;-56
2022/05/13 06:18:23;;;;;;;5.57;1.00;;;12.50;79.40;;;;;;5008913;28;20433;-55
2022/05/13 06:20:49;;;;;;;3.17;0.70;;;12.50;79.40;;;;;;5007318;28;20049;-58
2022/05/13 06:23:14;;;;;;;9.50;1.90;;;12.60;78.90;;;;;;5012757;28;20385;-55
2022/05/13 06:25:40;;;;;;;4.38;1.85;;;12.60;79.10;;;;;;5009263;28;20419;-55
2022/05/13 06:28:07;;;;;;;6.80;1.33;;;12.70;79.10;;;;;;5002076;28;20057;-56
2022/05/13 06:30:35;;;;;;;7.50;1.67;;;12.90;78.40;;;;;;5013549;28;20087;-56
2022/05/13 06:33:02;;;;;;;5.07;1.80;;;13.00;77.90;;;;;;5009627;28;20034;-55
2022/05/13 06:35:30;;;;;;;6.85;1.52;;;13.10;76.70;;;;;;5009825;28;20029;-53
2022/05/13 06:37:56;;;;;;;13.65;1.75;;;13.00;77.20;;;;;;5010087;28;20030;-53
2022/05/13 06:40:22;;;;;;;8.20;1.50;;;13.10;77.50;;;;;;5005153;28;20045;-55
2022/05/13 06:42:49;;;;;;;4.30;1.92;;;13.10;76.70;;;;;;5008472;28;20071;-54
2022/05/13 06:45:15;;;;;;;11.05;1.95;;;13.20;76.40;;;;;;5009911;28;20028;-54
2022/05/13 06:47:41;;;;;;;6.15;0.85;;;13.30;76.30;;;;;;5005896;28;20482;-55
2022/05/13 06:50:11;;;;;;;4.22;1.05;;;13.20;76.40;;;;;;5010601;28;20545;-56
2022/05/13 06:52:38;;;;;;;5.03;1.15;;;13.40;75.80;;;;;;5012050;28;20022;-55
2022/05/13 06:55:04;;;;;;;8.57;2.28;;;13.30;75.10;;;;;;5012289;28;20037;-54
2022/05/13 06:57:31;;;;;;;5.18;1.20;;;13.40;75.80;;;;;;5000153;28;20034;-52
2022/05/13 06:59:57;;;;;;;10.80;1.27;;;13.50;75.20;;;;;;5005818;28;20347;-54
2022/05/13 07:02:23;;;;;;;4.30;1.40;;;13.50;74.90;;;;;;5011874;28;20444;-55
2022/05/13 07:04:50;;;;;;;5.90;1.38;;;13.40;74.30;;;;;;5011548;28;20393;-55
2022/05/13 07:07:16;;;;;;;4.70;1.10;;;13.50;74.20;;;;;;5001090;28;20033;-54
2022/05/13 07:09:41;;;;;;;5.05;1.67;;;13.60;73.80;;;;;;5011627;28;20117;-53
2022/05/13 07:12:08;;;;;;;6.78;0.93;;;13.70;73.00;;;;;;4991131;28;20026;-55
2022/05/13 07:14:35;;;;;;;4.72;1.00;;;13.80;72.60;;;;;;5011571;28;20022;-54
2022/05/13 07:17:02;;;;;;;5.15;1.85;;;13.90;72.40;;;;;;5004324;28;20034;-56
2022/05/13 07:19:28;;;;;;;7.13;1.40;;;14.00;72.00;;;;;;5003596;28;20022;-54
2022/05/13 07:21:54;;;;;;;15.40;2.90;;;14.10;72.50;;;;;;5009999;28;20037;-56
2022/05/13 07:24:20;;;;;;;6.78;1.45;;;14.10;71.90;;;;;;5000662;28;20026;-54
2022/05/13 07:26:46;;;;;;;5.95;1.23;;;14.20;71.10;;;;;;5003646;28;20029;-53
2022/05/13 07:29:12;;;;;;;7.43;1.30;;;14.20;70.80;;;;;;4998391;28;20037;-56
2022/05/13 07:31:39;;;;;;;13.63;2.95;;;14.20;71.10;;;;;;5011523;28;20367;-54
2022/05/13 07:34:07;;;;;;;4.57;1.10;;;14.40;70.60;;;;;;4994908;28;20109;-55
2022/05/13 07:36:34;;;;;;;3.55;1.40;;;14.40;68.90;;;;;;5007842;28;20044;-56
2022/05/13 07:41:44;;;;;;;6.63;1.30;;;14.40;69.90;;;;;;5008941;28;20094;-55
2022/05/13 07:44:10;;;;;;;28.63;2.90;;;14.50;69.00;;;;;;5009706;28;20030;-55
2022/05/13 07:46:38;;;;;;;5.53;1.35;;;14.70;68.70;;;;;;4999049;28;20030;-53
2022/05/13 07:49:07;;;;;;;6.07;1.80;;;14.70;68.50;;;;;;5010063;28;20033;-58
2022/05/13 07:51:33;;;;;;;6.82;1.35;;;14.80;68.10;;;;;;5003073;28;20030;-51
2022/05/13 07:53:59;;;;;;;12.63;1.48;;;14.70;66.40;;;;;;5007746;28;20036;-55
2022/05/13 07:56:25;;;;;;;9.45;1.98;;;14.70;67.00;;;;;;5001308;28;20121;-56
2022/05/13 07:58:51;;;;;;;7.32;1.60;;;14.60;66.80;;;;;;5009610;28;20109;-55
2022/05/13 08:01:17;;;;;;;6.45;1.42;;;14.90;66.90;;;;;;4985620;28;20042;-53
2022/05/13 08:03:44;;;;;;;6.40;1.52;;;15.00;66.60;;;;;;4980985;28;20446;-55
2022/05/13 08:06:13;;;;;;;9.55;1.60;;;15.20;65.80;;;;;;4996993;28;20121;-56
2022/05/13 08:08:46;;;;;;;11.23;1.17;;;15.30;64.10;;;;;;5007727;28;20034;-54
2022/05/13 08:11:14;;;;;;;9.55;1.33;;;15.10;64.10;;;;;;4998186;28;20716;-56
2022/05/13 08:13:41;;;;;;;6.75;1.52;;;15.20;64.70;;;;;;4997531;28;20033;-56
2022/05/13 08:16:14;;;;;;;8.23;1.10;;;15.10;63.30;;;;;;5001926;28;20117;-55
2022/05/13 08:18:42;;;;;;;8.20;2.10;;;15.30;63.80;;;;;;5000260;28;20030;-54
2022/05/13 08:21:10;;;;;;;9.75;1.15;;;15.30;61.90;;;;;;4992176;28;20122;-58
2022/05/13 08:23:37;;;;;;;8.13;1.88;;;15.40;61.70;;;;;;4994470;28;20041;-52
2022/05/13 08:26:04;;;;;;;11.55;1.20;;;15.70;61.80;;;;;;5003595;28;20022;-56
2022/05/13 08:28:30;;;;;;;9.98;1.77;;;15.60;61.80;;;;;;4999414;28;20036;-53
2022/05/13 08:30:57;;;;;;;6.75;1.25;;;16.00;61.70;;;;;;4998315;28;20178;-54
2022/05/13 08:33:23;;;;;;;7.68;1.40;;;16.30;60.30;;;;;;4996301;28;20041;-58
2022/05/13 08:35:51;;;;;;;6.20;1.52;;;16.40;60.60;;;;;;4993656;28;20038;-55
2022/05/13 08:38:21;;;;;;;7.28;1.48;;;16.10;59.80;;;;;;4997795;28;20112;-54
2022/05/13 08:40:50;;;;;;;9.05;1.63;;;16.10;59.70;;;;;;4993118;28;20391;-54
2022/05/13 08:43:22;;;;;;;6.25;1.35;;;16.20;59.70;;;;;;4998019;28;20078;-55
2022/05/13 08:46:26;;;;;;;5.45;1.10;;;16.20;62.40;;;;;;4990993;28;21852;-55
2022/05/13 08:49:07;;;;;;;8.65;1.75;;;16.20;64.30;;;;;;4969718;28;20752;-57
2022/05/13 08:53:06;;;;;;;12.00;1.60;;;16.00;64.70;;;;;;4975065;28;20038;-54
2022/05/13 08:54:58;;;;;;;16.15;3.03;;;15.80;66.20;;;;;;4967338;28;20023;-55
2022/05/13 08:57:28;;;;;;;12.85;1.80;;;15.80;67.30;;;;;;4972875;28;20066;-53
2022/05/13 08:59:57;;;;;;;18.55;2.53;;;15.60;66.50;;;;;;4975177;28;20513;-54
2022/05/13 09:02:30;;;;;;;9.68;1.63;;;15.60;67.70;;;;;;4968866;28;20406;-55
2022/05/13 09:05:18;;;;;;;8.68;1.70;;;15.50;68.40;;;;;;4971118;28;20553;-52
2022/05/13 09:07:44;;;;;;;11.27;1.52;;;15.50;68.80;;;;;;4971247;28;20382;-54
2022/05/13 09:10:10;;;;;;;10.77;1.70;;;15.60;68.70;;;;;;4972600;28;20026;-55
2022/05/13 09:13:04;;;;;;;9.27;1.52;;;15.50;69.60;;;;;;4972199;28;20145;-56
2022/05/13 09:15:42;;;;;;;10.68;1.60;;;15.70;68.40;;;;;;4975418;28;20049;-52
2022/05/13 09:18:34;;;;;;;7.95;1.90;;;16.00;67.10;;;;;;4965331;28;20057;-54
2022/05/13 09:21:10;;;;;;;8.38;2.53;;;15.80;66.50;;;;;;4974033;28;20410;-54
2022/05/13 09:23:36;;;;;;;9.77;1.23;;;15.70;67.20;;;;;;4979632;28;20121;-54
2022/05/13 09:26:20;;;;;;;12.00;1.40;;;15.70;67.90;;;;;;4993849;28;20580;-53
2022/05/13 09:29:04;;;;;;;6.13;1.10;;;15.80;66.40;;;;;;4994830;28;20053;-54
2022/05/13 09:31:32;;;;;;;6.63;1.30;;;15.70;67.00;;;;;;4995606;28;20034;-53
2022/05/13 09:33:58;;;;;;;8.93;1.50;;;15.60;68.30;;;;;;5005434;28;20033;-54
2022/05/13 09:36:25;;;;;;;10.13;1.70;;;15.70;67.30;;;;;;4994203;28;20401;-53
2022/05/13 09:39:18;;;;;;;9.18;1.52;;;16.00;67.70;;;;;;4994958;28;20168;-52
2022/05/13 09:41:44;;;;;;;9.38;2.22;;;16.00;68.80;;;;;;4997756;28;20072;-54
2022/05/13 09:44:13;;;;;;;11.13;1.70;;;16.00;69.20;;;;;;4993902;28;20506;-54
2022/05/13 09:46:47;;;;;;;12.38;1.70;;;16.10;68.30;;;;;;4995015;28;20104;-54
2022/05/13 09:49:36;;;;;;;10.15;1.48;;;16.10;67.70;;;;;;4995170;28;20032;-53
2022/05/13 09:52:14;;;;;;;6.55;1.27;;;16.50;65.90;;;;;;4996486;28;20058;-54
2022/05/13 09:54:42;;;;;;;8.60;1.65;;;16.60;66.00;;;;;;4998433;28;20038;-53
2022/05/13 09:57:19;;;;;;;14.52;1.95;;;16.60;66.60;;;;;;4987886;28;20148;-53
2022/05/13 09:59:59;;;;;;;9.70;1.48;;;16.80;66.00;;;;;;4995374;28;20360;-54
2022/05/13 10:02:36;;;;;;;8.38;1.42;;;16.60;63.60;;;;;;5003155;28;20034;-57
2022/05/13 10:05:16;;;;;;;12.07;2.03;;;16.60;64.00;;;;;;4998924;28;20522;-54
2022/05/13 10:08:08;;;;;;;12.20;1.40;;;16.60;65.60;;;;;;4999810;28;20429;-53
2022/05/13 10:16:21;;;;;;;6.18;1.73;;;17.40;61.80;;;;;;4993764;28;20096;-57
2022/05/13 10:18:55;;;;;;;8.25;1.60;;;17.10;61.00;;;;;;4994368;28;20034;-53
2022/05/13 10:21:29;;;;;;;16.35;1.83;;;16.90;62.30;;;;;;4997866;28;20046;-53
2022/05/13 10:24:06;;;;;;;6.97;1.70;;;17.00;61.20;;;;;;4999470;28;20146;-54
2022/05/13 10:26:37;;;;;;;10.50;1.73;;;17.20;59.70;;;;;;4999718;28;20030;-54
2022/05/13 10:29:23;;;;;;;7.30;1.63;;;17.00;59.80;;;;;;4994536;28;20497;-53
2022/05/13 10:31:50;;;;;;;8.77;1.60;;;17.40;61.00;;;;;;4998633;28;20040;-50
2022/05/13 10:34:38;;;;;;;8.07;1.70;;;17.40;63.20;;;;;;4994185;28;20069;-51
2022/05/13 10:37:31;;;;;;;4.70;0.75;;;17.50;62.70;;;;;;4998318;28;20057;-55
2022/05/13 10:40:09;;;;;;;9.23;1.50;;;17.40;59.30;;;;;;4999375;28;20030;-54
2022/05/13 10:42:40;;;;;;;6.55;1.33;;;17.50;58.10;;;;;;4990200;28;20450;-55
2022/05/13 10:45:22;;;;;;;9.95;2.35;;;17.30;58.40;;;;;;4996928;28;20045;-54
2022/05/13 10:48:24;;;;;;;9.15;2.42;;;17.70;59.40;;;;;;4997201;28;20500;-52
2022/05/13 10:51:18;;;;;;;10.00;1.63;;;17.60;58.80;;;;;;4999849;28;20506;-54
2022/05/13 10:54:21;;;;;;;14.23;2.45;;;17.70;59.70;;;;;;4993390;28;20030;-54
2022/05/13 10:57:14;;;;;;;14.77;3.42;;;17.80;60.00;;;;;;4993976;28;20093;-54
2022/05/13 11:00:10;;;;;;;9.43;1.88;;;18.00;59.30;;;;;;5002756;28;20044;-53
2022/05/13 11:02:51;;;;;;;10.43;1.50;;;18.10;58.70;;;;;;4999682;28;20118;-53
2022/05/13 11:05:29;;;;;;;9.80;1.40;;;17.90;57.40;;;;;;4999871;28;20444;-54
2022/05/13 11:07:54;;;;;;;8.65;1.48;;;18.10;59.10;;;;;;4996604;28;20033;-52
2022/05/13 11:10:38;;;;;;;12.35;1.58;;;18.30;57.80;;;;;;4998506;28;20037;-55
2022/05/13 11:13:34;;;;;;;9.25;1.70;;;18.40;58.70;;;;;;4989147;28;20057;-53
2022/05/13 11:16:36;;;;;;;5.78;1.35;;;18.30;57.50;;;;;;4995671;28;20486;-53
2022/05/13 11:19:29;;;;;;;10.45;2.03;;;17.70;59.40;;;;;;4995579;28;20030;-55
2022/05/13 11:22:21;;;;;;;7.65;1.73;;;18.10;58.30;;;;;;4999673;28;20382;-55
2022/05/13 11:28:11;;;;;;;15.60;2.13;;;18.70;57.10;;;;;;4995542;28;20032;-54
2022/05/13 11:30:55;;;;;;;10.93;2.45;;;18.80;56.60;;;;;;4998964;28;20121;-54
2022/05/13 11:33:28;;;;;;;6.93;1.40;;;19.20;55.70;;;;;;4995978;28;20552;-53
2022/05/13 11:36:09;;;;;;;11.43;1.67;;;19.30;55.50;;;;;;5002330;28;20042;-55
2022/05/13 11:38:52;;;;;;;14.35;3.05;;;19.20;54.80;;;;;;4998676;28;20037;-54
2022/05/13 11:41:22;;;;;;;9.52;1.45;;;19.00;55.70;;;;;;5001656;28;20091;-53
2022/05/13 11:43:57;;;;;;;9.73;1.40;;;19.30;55.20;;;;;;4998785;28;20394;-52
2022/05/13 11:46:35;;;;;;;8.68;1.48;;;19.20;53.10;;;;;;4995839;28;20073;-55
2022/05/13 11:49:09;;;;;;;9.32;1.30;;;19.20;54.60;;;;;;4996039;28;20038;-51
2022/05/13 11:51:36;;;;;;;14.05;1.70;;;19.60;54.30;;;;;;4998381;28;20038;-55
2022/05/13 11:54:01;;;;;;;8.05;1.25;;;19.30;53.80;;;;;;4999504;28;20022;-54
2022/05/13 11:56:30;;;;;;;6.38;1.20;;;18.80;55.60;;;;;;4997516;28;20042;-54
2022/05/13 11:59:12;;;;;;;8.95;1.55;;;19.30;54.90;;;;;;4997573;28;20402;-55
2022/05/13 12:01:43;;;;;;;8.13;1.38;;;19.30;53.00;;;;;;5001858;28;20398;-54
2022/05/13 12:04:16;;;;;;;9.52;2.20;;;18.90;54.70;;;;;;4997385;28;20507;-54
2022/05/13 12:06:50;;;;;;;9.60;1.63;;;19.30;54.10;;;;;;4996629;28;20037;-54
2022/05/13 12:09:43;;;;;;;9.93;1.48;;;19.50;53.60;;;;;;5000368;28;20129;-52
2022/05/13 12:12:15;;;;;;;13.98;1.83;;;19.60;53.30;;;;;;4991548;28;20084;-54
2022/05/13 12:14:41;;;;;;;12.13;1.90;;;19.40;53.10;;;;;;5003286;28;20030;-51
2022/05/13 12:17:56;;;;;;;12.82;2.20;;;19.70;53.10;;;;;;5005680;28;20044;-53
2022/05/13 12:20:36;;;;;;;17.90;2.10;;;19.90;53.40;;;;;;4959771;28;20818;-54
2022/05/13 12:23:34;;;;;;;11.00;2.10;;;19.60;53.90;;;;;;4957145;28;20142;-52
2022/05/13 12:26:05;;;;;;;10.73;2.20;;;19.20;54.30;;;;;;4954403;28;20030;-54
2022/05/13 12:28:38;;;;;;;8.35;1.60;;;18.90;55.20;;;;;;4954539;28;20137;-54
2022/05/13 12:31:18;;;;;;;10.90;1.73;;;18.90;55.50;;;;;;4958173;28;20063;-54
2022/05/13 12:37:33;;;;;;;10.85;1.60;;;18.50;55.60;;;;;;4953652;28;20031;-52
2022/05/13 12:39:44;;;;;;;10.17;2.00;;;19.00;55.40;;;;;;4955001;28;20037;-54
2022/05/13 12:42:12;;;;;;;11.63;1.80;;;20.10;53.00;;;;;;4959754;28;20277;-54
2022/05/13 12:45:12;;;;;;;12.95;1.88;;;20.80;50.30;;;;;;4952766;28;20042;-55
2022/05/13 12:48:18;;;;;;;9.30;1.95;;;21.30;47.90;;;;;;4932990;28;20738;-53
2022/05/13 12:50:47;;;;;;;14.05;1.80;;;21.10;47.60;;;;;;4956284;28;20066;-55
2022/05/13 12:53:30;;;;;;;8.07;1.55;;;20.20;50.00;;;;;;4956698;28;20346;-55
2022/05/13 12:56:15;;;;;;;11.95;1.60;;;19.90;50.70;;;;;;4979130;28;20050;-53
2022/05/13 12:58:46;;;;;;;11.73;1.52;;;20.20;49.80;;;;;;4995037;28;20033;-57
2022/05/13 13:01:14;;;;;;;9.23;1.60;;;20.30;49.60;;;;;;4995097;28;20628;-53
2022/05/13 13:03:42;;;;;;;8.00;1.58;;;20.60;48.90;;;;;;5002704;28;20505;-54
2022/05/13 13:06:15;;;;;;;8.30;2.25;;;20.70;48.70;;;;;;5002245;28;20033;-54
2022/05/13 13:08:43;;;;;;;7.53;1.70;;;20.30;50.30;;;;;;4996320;28;20494;-56
2022/05/13 13:11:25;;;;;;;12.80;2.20;;;20.50;49.80;;;;;;4989802;28;20038;-54
2022/05/13 13:13:58;;;;;;;11.73;1.45;;;20.80;49.90;;;;;;4996851;28;20030;-52
2022/05/13 13:16:59;;;;;;;7.30;1.70;;;20.30;50.00;;;;;;5001742;28;20466;-56
2022/05/13 13:19:27;;;;;;;9.50;1.50;;;20.10;50.60;;;;;;4993106;28;20040;-58
2022/05/13 13:21:58;;;;;;;10.40;1.95;;;20.20;51.20;;;;;;4993752;28;20053;-56
2022/05/13 13:24:33;;;;;;;13.02;2.10;;;20.10;51.60;;;;;;4997926;28;20029;-57
2022/05/13 13:26:59;;;;;;;10.57;1.90;;;19.90;51.90;;;;;;4994827;28;20049;-58
2022/05/13 13:29:40;;;;;;;14.13;3.33;;;19.50;53.90;;;;;;4994335;28;20061;-57
2022/05/13 13:32:13;;;;;;;12.55;1.95;;;19.80;53.30;;;;;;4994139;28;20034;-58
2022/05/13 13:34:58;;;;;;;10.20;1.50;;;20.30;51.70;;;;;;5002734;28;20018;-56
2022/05/13 13:37:30;;;;;;;13.07;2.90;;;21.00;50.40;;;;;;5001899;28;20100;-57
2022/05/13 13:39:56;;;;;;;;;;;21.10;50.00;;;;;;5001535;28;20026;-58